createdAt,value
2022-11-14T00:01:20.596Z,3.87
2022-11-14T00:03:51.091Z,4.17
2022-11-14T00:06:19.714Z,3.97
2022-11-14T00:08:47.737Z,4.17
2022-11-14T00:11:15.827Z,4.07
2022-11-14T00:13:43.948Z,4.23
2022-11-14T00:16:13.446Z,3.90
2022-11-14T00:18:41.517Z,3.73
2022-11-14T00:21:09.639Z,4.00
2022-11-14T00:23:37.748Z,4.13
2022-11-14T00:26:06.362Z,4.07
2022-11-14T00:28:34.446Z,4.10
2022-11-14T00:31:02.713Z,4.10
2022-11-14T00:33:32.167Z,4.03
2022-11-14T00:36:00.215Z,4.10
2022-11-14T00:38:28.636Z,4.00
2022-11-14T00:40:57.046Z,3.90
2022-11-14T00:43:25.117Z,4.60
2022-11-14T00:45:53.185Z,3.60
2022-11-14T00:48:21.289Z,4.00
2022-11-14T00:50:50.808Z,3.83
2022-11-14T00:53:18.964Z,4.27
2022-11-14T00:55:47.081Z,3.80
2022-11-14T00:58:18.319Z,3.70
2022-11-14T01:00:46.468Z,4.00
2022-11-14T01:03:14.670Z,3.50
2022-11-14T01:05:43.480Z,3.97
2022-11-14T01:08:13.257Z,3.90
2022-11-14T01:10:41.956Z,3.83
2022-11-14T01:13:10.159Z,3.67
2022-11-14T01:15:41.168Z,3.77
2022-11-14T01:18:09.467Z,4.20
2022-11-14T01:20:40.149Z,3.80
2022-11-14T01:23:08.351Z,4.67
2022-11-14T01:25:38.386Z,4.10
2022-11-14T01:28:07.460Z,4.00
2022-11-14T01:30:35.594Z,4.00
2022-11-14T01:33:03.785Z,3.93
2022-11-14T01:35:32.328Z,4.00
2022-11-14T01:38:00.539Z,4.20
2022-11-14T01:40:28.671Z,3.93
2022-11-14T01:43:36.600Z,3.63
2022-11-14T01:46:07.027Z,3.90
2022-11-14T01:48:41.224Z,4.07
2022-11-14T01:51:19.547Z,3.93
2022-11-14T01:53:47.800Z,3.87
2022-11-14T01:56:17.549Z,4.17
2022-11-14T01:58:46.732Z,3.97
2022-11-14T02:01:16.356Z,4.10
2022-11-14T02:03:45.396Z,4.20
2022-11-14T02:06:16.099Z,4.50
2022-11-14T02:08:44.203Z,3.87
2022-11-14T02:11:12.821Z,4.27
2022-11-14T02:13:40.918Z,3.77
2022-11-14T02:16:09.088Z,4.13
2022-11-14T02:18:38.552Z,4.30
2022-11-14T02:21:13.798Z,4.00
2022-11-14T02:23:42.066Z,3.60
2022-11-14T02:26:10.205Z,3.83
2022-11-14T02:28:38.390Z,4.13
2022-11-14T02:31:06.631Z,3.60
2022-11-14T02:33:34.909Z,3.90
2022-11-14T02:36:03.041Z,4.63
2022-11-14T02:38:32.871Z,4.30
2022-11-14T02:41:01.092Z,4.60
2022-11-14T02:43:29.226Z,3.93
2022-11-14T02:46:00.271Z,4.33
2022-11-14T02:48:32.675Z,4.50
2022-11-14T02:51:01.077Z,4.10
2022-11-14T02:53:33.809Z,4.27
2022-11-14T02:56:01.959Z,4.50
2022-11-14T02:58:30.396Z,4.67
2022-11-14T03:01:19.823Z,4.17
2022-11-14T03:03:46.714Z,3.83
2022-11-14T03:06:14.851Z,4.83
2022-11-14T03:08:44.363Z,3.83
2022-11-14T03:11:12.495Z,4.33
2022-11-14T03:13:40.867Z,3.97
2022-11-14T03:16:09.628Z,3.93
2022-11-14T03:18:37.835Z,3.63
2022-11-14T03:21:09.950Z,4.40
2022-11-14T03:23:38.076Z,4.27
2022-11-14T03:26:10.363Z,4.13
2022-11-14T03:28:38.785Z,4.50
2022-11-14T03:31:07.164Z,4.30
2022-11-14T03:33:35.369Z,4.30
2022-11-14T03:36:03.578Z,4.10
2022-11-14T03:38:31.928Z,4.00
2022-11-14T03:41:00.365Z,3.80
2022-11-14T03:43:32.127Z,4.67
2022-11-14T03:46:00.300Z,4.40
2022-11-14T03:48:28.898Z,4.10
2022-11-14T03:50:57.313Z,4.23
2022-11-14T03:53:25.503Z,4.60
2022-11-14T03:55:53.666Z,4.50
2022-11-14T03:58:21.708Z,4.37
2022-11-14T04:00:51.273Z,4.50
2022-11-14T04:03:19.431Z,4.47
2022-11-14T04:05:47.566Z,5.27
2022-11-14T04:08:15.690Z,4.40
2022-11-14T04:10:43.817Z,4.67
2022-11-14T04:13:11.935Z,4.43
2022-11-14T04:15:49.950Z,4.53
2022-11-14T04:18:19.646Z,4.23
2022-11-14T04:20:47.756Z,4.70
2022-11-14T04:23:15.872Z,4.07
2022-11-14T04:25:44.521Z,4.77
2022-11-14T04:28:12.657Z,4.40
2022-11-14T04:30:40.779Z,4.90
2022-11-14T04:33:08.938Z,5.00
2022-11-14T04:35:38.500Z,5.17
2022-11-14T04:38:06.632Z,4.90
2022-11-14T04:40:34.702Z,5.37
2022-11-14T04:43:02.824Z,4.70
2022-11-14T04:45:30.954Z,4.70
2022-11-14T04:48:05.057Z,6.00
2022-11-14T04:50:33.107Z,5.10
2022-11-14T04:53:02.612Z,5.17
2022-11-14T04:55:30.758Z,5.70
2022-11-14T04:57:59.120Z,5.40
2022-11-14T05:00:27.340Z,5.20
2022-11-14T05:02:55.452Z,5.30
2022-11-14T05:05:23.759Z,5.17
2022-11-14T05:07:51.810Z,5.17
2022-11-14T05:10:21.381Z,4.80
2022-11-14T05:12:49.532Z,5.23
2022-11-14T05:15:17.829Z,5.47
2022-11-14T05:17:45.935Z,5.33
2022-11-14T05:20:14.571Z,5.50
2022-11-14T05:22:42.728Z,4.80
2022-11-14T05:25:11.378Z,5.87
2022-11-14T05:27:40.927Z,4.93
2022-11-14T05:30:10.260Z,5.77
2022-11-14T05:32:38.453Z,5.57
2022-11-14T05:35:07.573Z,5.70
2022-11-14T05:37:35.737Z,4.80
2022-11-14T05:40:03.964Z,5.10
2022-11-14T05:42:32.105Z,5.30
2022-11-14T05:45:01.639Z,5.10
2022-11-14T05:47:29.746Z,4.80
2022-11-14T05:49:57.900Z,4.93
2022-11-14T05:52:26.008Z,5.37
2022-11-14T05:54:54.066Z,5.57
2022-11-14T05:57:23.267Z,5.23
2022-11-14T05:59:51.387Z,4.90
2022-11-14T06:02:20.978Z,4.30
2022-11-14T06:04:49.089Z,4.87
2022-11-14T06:07:20.147Z,4.40
2022-11-14T06:09:51.833Z,5.33
2022-11-14T06:12:20.230Z,5.10
2022-11-14T06:14:48.307Z,5.00
2022-11-14T06:17:16.455Z,5.00
2022-11-14T06:19:45.958Z,5.23
2022-11-14T06:22:14.057Z,5.20
2022-11-14T06:24:42.150Z,5.10
2022-11-14T06:27:10.328Z,4.90
2022-11-14T06:29:38.393Z,4.50
2022-11-14T06:32:06.729Z,4.87
2022-11-14T06:34:34.805Z,4.80
2022-11-14T06:37:05.559Z,4.80
2022-11-14T06:39:33.737Z,5.30
2022-11-14T06:42:01.815Z,5.07
2022-11-14T06:44:31.299Z,4.93
2022-11-14T06:46:59.508Z,5.00
2022-11-14T06:49:27.995Z,5.10
2022-11-14T06:51:56.249Z,5.13
2022-11-14T06:54:25.852Z,4.97
2022-11-14T06:56:53.992Z,4.80
2022-11-14T06:59:27.981Z,4.90
2022-11-14T07:01:56.111Z,4.40
2022-11-14T07:04:24.346Z,5.33
2022-11-14T07:06:52.553Z,5.10
2022-11-14T07:09:20.944Z,4.97
2022-11-14T07:11:50.442Z,5.17
2022-11-14T07:14:18.714Z,5.13
2022-11-14T07:16:47.000Z,5.00
2022-11-14T07:19:15.223Z,5.23
2022-11-14T07:21:43.355Z,5.30
2022-11-14T07:24:11.494Z,5.20
2022-11-14T07:26:39.746Z,4.83
2022-11-14T07:29:09.289Z,5.10
2022-11-14T07:31:37.378Z,4.07
2022-11-14T07:34:06.071Z,4.90
2022-11-14T07:36:34.164Z,5.20
2022-11-14T07:39:02.314Z,4.87
2022-11-14T07:41:30.430Z,5.10
2022-11-14T07:43:58.579Z,5.00
2022-11-14T07:46:28.126Z,5.23
2022-11-14T07:48:56.553Z,4.27
2022-11-14T07:51:24.696Z,4.63
2022-11-14T07:53:53.661Z,5.20
2022-11-14T07:56:22.279Z,5.30
2022-11-14T07:58:50.405Z,5.57
2022-11-14T08:01:18.752Z,5.23
2022-11-14T08:03:48.326Z,4.87
2022-11-14T08:06:17.037Z,4.80
2022-11-14T08:08:45.230Z,5.20
2022-11-14T08:11:15.112Z,5.00
2022-11-14T08:13:51.357Z,4.80
2022-11-14T08:16:19.581Z,5.10
2022-11-14T08:18:49.039Z,4.30
2022-11-14T08:21:17.142Z,5.07
2022-11-14T08:23:45.882Z,5.37
2022-11-14T08:26:14.025Z,4.23
2022-11-14T08:28:42.150Z,5.40
2022-11-14T08:31:10.351Z,4.80
2022-11-14T08:33:38.518Z,5.67
2022-11-14T08:36:09.664Z,5.03
2022-11-14T08:38:37.873Z,4.90
2022-11-14T08:41:06.191Z,5.10
2022-11-14T08:43:34.305Z,4.70
2022-11-14T08:46:03.308Z,5.37
2022-11-14T08:48:31.936Z,5.10
2022-11-14T08:51:03.028Z,5.07
2022-11-14T08:53:32.604Z,4.80
2022-11-14T08:56:00.737Z,5.17
2022-11-14T08:58:32.679Z,5.20
2022-11-14T09:01:03.939Z,5.40
2022-11-14T09:03:32.357Z,5.53
2022-11-14T09:06:00.543Z,4.90
2022-11-14T09:08:29.789Z,5.37
2022-11-14T09:11:04.884Z,5.10
2022-11-14T09:13:34.245Z,5.60
2022-11-14T09:16:02.473Z,5.10
2022-11-14T09:18:31.312Z,4.77
2022-11-14T09:21:02.053Z,5.00
2022-11-14T09:23:30.548Z,5.43
2022-11-14T09:26:00.336Z,5.30
2022-11-14T09:28:28.496Z,5.60
2022-11-14T09:31:02.184Z,5.20
2022-11-14T09:33:30.701Z,5.50
2022-11-14T09:35:59.408Z,5.37
2022-11-14T09:38:27.739Z,5.77
2022-11-14T09:41:05.254Z,5.90
2022-11-14T09:43:43.088Z,5.73
2022-11-14T09:46:17.715Z,5.80
2022-11-14T09:48:45.782Z,5.90
2022-11-14T09:51:16.931Z,5.73
2022-11-14T09:53:51.460Z,6.20
2022-11-14T09:56:23.877Z,6.00
2022-11-14T09:59:02.620Z,5.70
2022-11-14T10:01:37.862Z,7.00
2022-11-14T10:04:11.401Z,6.57
2022-11-14T10:06:42.016Z,6.10
2022-11-14T10:09:30.805Z,6.23
2022-11-14T10:12:04.086Z,5.80
2022-11-14T10:15:00.144Z,6.50
2022-11-14T10:17:42.029Z,6.60
2022-11-14T10:20:13.300Z,6.83
2022-11-14T10:22:49.677Z,6.60
2022-11-14T10:25:22.816Z,7.30
2022-11-14T10:28:04.853Z,6.60
2022-11-14T10:30:38.427Z,6.60
2022-11-14T10:33:14.175Z,5.87
2022-11-14T10:35:43.360Z,6.53
2022-11-14T10:38:13.618Z,6.50
2022-11-14T10:40:43.164Z,7.23
2022-11-14T10:43:22.455Z,6.20
2022-11-14T10:45:52.392Z,5.90
2022-11-14T10:48:30.805Z,6.10
2022-11-14T10:50:59.985Z,5.97
2022-11-14T10:53:36.522Z,7.00
2022-11-14T10:56:05.486Z,6.07
2022-11-14T10:58:47.775Z,6.70
2022-11-14T11:01:37.272Z,6.87
2022-11-14T11:04:22.730Z,6.43
2022-11-14T11:06:51.031Z,6.63
2022-11-14T11:09:42.180Z,6.13
2022-11-14T11:12:16.962Z,6.27
2022-11-14T11:14:46.811Z,5.90
2022-11-14T11:17:29.572Z,6.50
2022-11-14T11:20:32.993Z,6.07
2022-11-14T11:23:04.646Z,6.07
2022-11-14T11:25:33.079Z,6.60
2022-11-14T11:28:13.457Z,6.63
2022-11-14T11:30:51.859Z,6.07
2022-11-14T11:33:24.946Z,7.17
2022-11-14T11:35:54.656Z,6.30
2022-11-14T11:38:22.783Z,6.50
2022-11-14T11:40:52.540Z,6.20
2022-11-14T11:43:41.859Z,6.20
2022-11-14T11:46:15.767Z,6.10
2022-11-14T11:48:43.904Z,6.10
2022-11-14T11:51:15.248Z,5.83
2022-11-14T11:53:45.798Z,5.60
2022-11-14T11:56:14.762Z,6.03
2022-11-14T11:58:45.586Z,6.00
2022-11-14T12:01:15.365Z,5.73
2022-11-14T12:03:44.609Z,5.63
2022-11-14T12:06:15.600Z,5.73
2022-11-14T12:08:49.213Z,5.80
2022-11-14T12:11:20.013Z,5.97
2022-11-14T12:14:08.029Z,5.93
2022-11-14T12:16:55.218Z,5.80
2022-11-14T12:19:58.971Z,6.47
2022-11-14T12:22:37.699Z,6.00
2022-11-14T12:25:30.157Z,6.60
2022-11-14T12:28:12.667Z,6.30
2022-11-14T12:30:40.904Z,5.23
2022-11-14T12:33:11.693Z,5.30
2022-11-14T12:35:41.075Z,5.67
2022-11-14T12:38:15.687Z,5.97
2022-11-14T12:40:50.024Z,6.60
2022-11-14T12:43:37.142Z,5.80
2022-11-14T12:46:08.501Z,5.57
2022-11-14T12:48:39.192Z,5.80
2022-11-14T12:51:30.260Z,6.03
2022-11-14T12:53:58.395Z,5.27
2022-11-14T12:57:09.816Z,5.50
2022-11-14T12:59:55.134Z,5.20
2022-11-14T13:02:59.006Z,5.80
2022-11-14T13:05:49.680Z,5.53
2022-11-14T13:08:42.574Z,5.90
2022-11-14T13:11:55.491Z,5.17
2022-11-14T13:14:41.086Z,5.07
2022-11-14T13:17:42.267Z,5.30
2022-11-14T13:20:48.308Z,5.47
2022-11-14T13:23:49.586Z,5.00
2022-11-14T13:26:38.288Z,5.80
2022-11-14T13:29:06.390Z,6.17
2022-11-14T13:31:51.441Z,4.80
2022-11-14T13:34:44.736Z,4.80
2022-11-14T13:37:21.021Z,5.57
2022-11-14T13:39:51.480Z,4.70
2022-11-14T13:42:30.760Z,4.60
2022-11-14T13:45:29.942Z,5.20
2022-11-14T13:48:30.629Z,4.80
2022-11-14T13:51:10.199Z,5.20
2022-11-14T13:53:48.713Z,5.10
2022-11-14T13:56:27.487Z,5.00
2022-11-14T13:59:16.342Z,5.53
2022-11-14T14:01:51.572Z,5.47
2022-11-14T14:04:26.974Z,5.30
2022-11-14T14:06:59.259Z,4.70
2022-11-14T14:09:29.965Z,4.90
2022-11-14T14:12:05.482Z,5.33
2022-11-14T14:14:43.159Z,4.40
2022-11-14T14:17:13.056Z,4.97
2022-11-14T14:19:48.661Z,5.30
2022-11-14T14:22:20.395Z,5.10
2022-11-14T14:24:54.115Z,4.90
2022-11-14T14:27:25.438Z,5.00
2022-11-14T14:30:00.232Z,5.23
2022-11-14T14:32:28.396Z,4.70
2022-11-14T14:34:58.629Z,5.70
2022-11-14T14:37:27.606Z,5.10
2022-11-14T14:39:59.441Z,5.67
2022-11-14T14:42:34.663Z,5.03
2022-11-14T14:45:04.925Z,5.20
2022-11-14T14:47:35.980Z,5.37
2022-11-14T14:50:05.278Z,5.63
2022-11-14T14:52:34.675Z,5.17
2022-11-14T14:55:03.144Z,5.33
2022-11-14T14:57:32.809Z,4.87
2022-11-14T15:00:01.319Z,4.80
2022-11-14T15:02:30.825Z,5.77
2022-11-14T15:04:59.260Z,5.00
2022-11-14T15:07:28.217Z,5.70
2022-11-14T15:09:57.491Z,5.17
2022-11-14T15:12:26.141Z,5.37
2022-11-14T15:14:55.259Z,5.80
2022-11-14T15:17:23.489Z,6.13
2022-11-14T15:19:53.700Z,4.90
2022-11-14T15:22:24.607Z,5.03
2022-11-14T15:25:18.716Z,5.40
2022-11-14T15:27:48.434Z,5.17
2022-11-14T15:30:24.668Z,5.70
2022-11-14T15:33:00.132Z,5.23
2022-11-14T15:35:31.824Z,5.97
2022-11-14T15:38:28.983Z,5.07
2022-11-14T15:41:17.130Z,4.90
2022-11-14T15:43:50.440Z,5.97
2022-11-14T15:46:43.394Z,5.23
2022-11-14T15:49:18.673Z,5.10
2022-11-14T15:51:48.922Z,5.60
2022-11-14T15:54:24.771Z,5.00
2022-11-14T15:56:53.058Z,5.10
2022-11-14T15:59:21.182Z,4.50
2022-11-14T16:01:50.781Z,5.30
2022-11-14T16:04:19.915Z,5.27
2022-11-14T16:06:49.469Z,4.97
2022-11-14T16:09:18.926Z,5.97
2022-11-14T16:11:49.044Z,4.60
2022-11-14T16:14:17.273Z,5.50
2022-11-14T16:16:45.381Z,5.00
2022-11-14T16:19:15.011Z,4.83
2022-11-14T16:21:43.526Z,5.23
2022-11-14T16:24:18.923Z,5.20
2022-11-14T16:26:47.261Z,4.80
2022-11-14T16:29:15.404Z,5.40
2022-11-14T16:31:43.662Z,5.57
2022-11-14T16:34:13.745Z,5.50
2022-11-14T16:36:41.941Z,5.30
2022-11-14T16:39:13.462Z,5.00
2022-11-14T16:41:43.140Z,5.30
2022-11-14T16:44:14.634Z,5.83
2022-11-14T16:46:42.956Z,5.27
2022-11-14T16:49:14.160Z,5.23
2022-11-14T16:51:50.475Z,5.90
2022-11-14T16:54:22.031Z,5.40
2022-11-14T16:56:51.711Z,6.20
2022-11-14T16:59:19.946Z,5.27
2022-11-14T17:01:48.805Z,6.10
2022-11-14T17:04:17.113Z,5.33
2022-11-14T17:06:45.247Z,5.40
2022-11-14T17:09:13.418Z,5.80
2022-11-14T17:11:41.577Z,5.27
2022-11-14T17:14:11.088Z,4.87
2022-11-14T17:16:39.174Z,5.73
2022-11-14T17:19:07.920Z,5.37
2022-11-14T17:21:36.218Z,5.70
2022-11-14T17:24:04.434Z,5.40
2022-11-14T17:26:36.635Z,5.83
2022-11-14T17:29:04.896Z,6.10
2022-11-14T17:31:37.900Z,5.53
2022-11-14T17:34:06.960Z,5.40
2022-11-14T17:36:35.343Z,5.33
2022-11-14T17:39:03.457Z,5.80
2022-11-14T17:41:31.660Z,5.43
2022-11-14T17:44:03.669Z,5.20
2022-11-14T17:46:31.906Z,5.10
2022-11-14T17:49:01.578Z,5.30
2022-11-14T17:51:29.684Z,5.70
2022-11-14T17:53:57.738Z,5.40
2022-11-14T17:56:26.573Z,5.77
2022-11-14T17:58:54.838Z,5.90
2022-11-14T18:01:23.993Z,5.40
2022-11-14T18:03:52.225Z,4.93
2022-11-14T18:06:21.960Z,5.07
2022-11-14T18:08:50.043Z,5.57
2022-11-14T18:11:18.874Z,5.07
2022-11-14T18:13:46.961Z,4.70
2022-11-14T18:16:18.837Z,5.30
2022-11-14T18:18:47.025Z,5.00
2022-11-14T18:21:15.744Z,4.90
2022-11-14T18:23:45.386Z,4.97
2022-11-14T18:26:14.176Z,5.27
2022-11-14T18:28:42.650Z,4.83
2022-11-14T18:31:11.328Z,4.87
2022-11-14T18:33:39.431Z,6.00
2022-11-14T18:36:09.787Z,6.10
2022-11-14T18:38:37.859Z,5.17
2022-11-14T18:41:08.968Z,5.43
2022-11-14T18:43:37.178Z,5.50
2022-11-14T18:46:06.880Z,5.30
2022-11-14T18:48:35.154Z,5.13
2022-11-14T18:51:03.374Z,5.60
2022-11-14T18:53:34.238Z,4.93
2022-11-14T18:56:05.060Z,4.67
2022-11-14T18:58:36.055Z,4.97
2022-11-14T19:01:11.072Z,5.67
2022-11-14T19:03:39.313Z,4.57
2022-11-14T19:06:10.998Z,4.50
2022-11-14T19:08:39.653Z,4.80
2022-11-14T19:11:08.564Z,5.03
2022-11-14T19:13:38.000Z,4.60
2022-11-14T19:16:06.828Z,4.97
2022-11-14T19:18:34.965Z,4.87
2022-11-14T19:21:03.728Z,5.70
2022-11-14T19:23:34.902Z,4.60
2022-11-14T19:26:03.199Z,5.10
2022-11-14T19:28:31.267Z,4.60
2022-11-14T19:31:03.706Z,4.63
2022-11-14T19:33:32.207Z,5.23
2022-11-14T19:36:05.248Z,5.20
2022-11-14T19:38:33.569Z,4.97
2022-11-14T19:41:07.571Z,5.30
2022-11-14T19:43:35.748Z,4.60
2022-11-14T19:46:05.330Z,4.97
2022-11-14T19:48:33.572Z,5.13
2022-11-14T19:51:02.746Z,5.17
2022-11-14T19:53:31.565Z,5.33
2022-11-14T19:56:03.092Z,5.00
2022-11-14T19:58:31.193Z,5.37
2022-11-14T20:01:04.049Z,5.20
2022-11-14T20:03:32.471Z,5.00
2022-11-14T20:06:00.763Z,4.37
2022-11-14T20:08:29.027Z,5.40
2022-11-14T20:10:58.995Z,5.40
2022-11-14T20:13:27.093Z,4.20
2022-11-14T20:15:55.234Z,4.90
2022-11-14T20:18:24.720Z,4.73
2022-11-14T20:20:52.836Z,4.50
2022-11-14T20:23:20.915Z,4.40
2022-11-14T20:25:52.386Z,4.87
2022-11-14T20:28:23.132Z,4.50
2022-11-14T20:30:51.209Z,4.60
2022-11-14T20:33:19.410Z,4.50
2022-11-14T20:35:49.244Z,4.97
2022-11-14T20:38:17.346Z,4.83
2022-11-14T20:40:45.382Z,4.87
2022-11-14T20:43:13.468Z,4.43
2022-11-14T20:45:41.678Z,4.90
2022-11-14T20:48:09.831Z,4.57
2022-11-14T20:50:37.918Z,4.90
2022-11-14T20:53:07.435Z,4.53
2022-11-14T20:55:35.550Z,4.70
2022-11-14T20:58:03.617Z,4.67
2022-11-14T21:00:31.801Z,4.00
2022-11-14T21:02:59.933Z,4.70
2022-11-14T21:05:28.075Z,4.17
2022-11-14T21:07:56.230Z,4.63
2022-11-14T21:10:43.168Z,4.90
2022-11-14T21:13:29.127Z,4.70
2022-11-14T21:15:57.631Z,4.73
2022-11-14T21:18:25.756Z,4.90
2022-11-14T21:20:59.976Z,4.47
2022-11-14T21:23:28.101Z,4.50
2022-11-14T21:26:04.229Z,5.30
2022-11-14T21:28:32.718Z,4.53
2022-11-14T21:31:01.126Z,4.60
2022-11-14T21:33:31.529Z,4.43
2022-11-14T21:36:11.290Z,4.77
2022-11-14T21:38:48.443Z,4.70
2022-11-14T21:41:18.804Z,4.60
2022-11-14T21:43:46.956Z,4.40
2022-11-14T21:46:17.378Z,4.40
2022-11-14T21:48:47.784Z,4.43
2022-11-14T21:51:16.531Z,4.47
2022-11-14T21:53:45.127Z,4.90
2022-11-14T21:56:13.907Z,4.37
2022-11-14T21:58:43.405Z,4.80
2022-11-14T22:01:12.351Z,4.27
2022-11-14T22:03:58.370Z,4.60
2022-11-14T22:06:27.534Z,4.20
2022-11-14T22:08:56.314Z,4.20
2022-11-14T22:11:24.491Z,4.97
2022-11-14T22:13:53.994Z,4.50
2022-11-14T22:16:22.162Z,4.77
2022-11-14T22:18:52.320Z,5.30
2022-11-14T22:21:20.393Z,4.97
2022-11-14T22:23:48.474Z,4.80
2022-11-14T22:26:16.546Z,4.80
2022-11-14T22:28:44.631Z,4.70
2022-11-14T22:31:15.020Z,4.67
2022-11-14T22:33:46.798Z,4.80
2022-11-14T22:36:16.549Z,4.30
2022-11-14T22:38:44.908Z,4.43
2022-11-14T22:41:13.593Z,4.60
2022-11-14T22:43:41.785Z,5.07
2022-11-14T22:46:11.064Z,5.37
2022-11-14T22:48:40.597Z,4.10
2022-11-14T22:51:11.303Z,4.03
2022-11-14T22:53:39.558Z,4.83
2022-11-14T22:56:08.888Z,4.57
2022-11-14T22:58:37.848Z,4.87
2022-11-14T23:01:12.341Z,4.13
2022-11-14T23:03:41.894Z,4.43
2022-11-14T23:06:10.473Z,4.40
2022-11-14T23:08:38.657Z,4.57
2022-11-14T23:11:07.928Z,4.60
2022-11-14T23:13:38.440Z,4.00
2022-11-14T23:16:08.651Z,4.00
2022-11-14T23:18:36.803Z,4.73
2022-11-14T23:21:07.003Z,3.90
2022-11-14T23:23:35.171Z,3.73
2022-11-14T23:26:06.489Z,4.40
2022-11-14T23:28:34.724Z,4.23
2022-11-14T23:31:02.918Z,3.67
2022-11-14T23:33:31.265Z,3.90
2022-11-14T23:35:59.534Z,4.27
2022-11-14T23:38:30.630Z,3.70
2022-11-14T23:40:59.559Z,3.90
2022-11-14T23:43:27.736Z,4.07
2022-11-14T23:45:55.912Z,3.83
2022-11-14T23:48:24.348Z,3.87
2022-11-14T23:50:52.918Z,3.70
2022-11-14T23:53:20.998Z,3.70
2022-11-14T23:55:54.386Z,3.50
2022-11-14T23:58:22.659Z,4.50
